sensor_id;sensor_type;location;lat;lon;timestamp;P1;durP1;ratioP1;P2;durP2;ratioP2
59416;SDS011;45222;52.458;20.914;2023-02-28T00:01:03;21.90;;;8.00;;
59416;SDS011;45222;52.458;20.914;2023-02-28T00:04:55;24.30;;;9.10;;
59416;SDS011;45222;52.458;20.914;2023-02-28T00:08:53;29.50;;;9.50;;
59416;SDS011;45222;52.458;20.914;2023-02-28T00:12:40;23.70;;;8.30;;
59416;SDS011;45222;52.458;20.914;2023-02-28T00:16:32;28.40;;;9.10;;
59416;SDS011;45222;52.458;20.914;2023-02-28T00:20:37;22.00;;;8.50;;
59416;SDS011;45222;52.458;20.914;2023-02-28T00:24:22;29.70;;;19.90;;
59416;SDS011;45222;52.458;20.914;2023-02-28T00:28:14;21.40;;;9.40;;
59416;SDS011;45222;52.458;20.914;2023-02-28T00:32:13;32.30;;;18.50;;
59416;SDS011;45222;52.458;20.914;2023-02-28T00:36:01;27.20;;;10.10;;
59416;SDS011;45222;52.458;20.914;2023-02-28T00:39:55;25.00;;;9.80;;
59416;SDS011;45222;52.458;20.914;2023-02-28T00:43:53;29.80;;;11.20;;
59416;SDS011;45222;52.458;20.914;2023-02-28T00:47:38;26.70;;;10.40;;
59416;SDS011;45222;52.458;20.914;2023-02-28T00:51:46;24.00;;;9.80;;
59416;SDS011;45222;52.458;20.914;2023-02-28T00:55:51;23.10;;;10.00;;
59416;SDS011;45222;52.458;20.914;2023-02-28T00:59:36;28.00;;;10.50;;
59416;SDS011;45222;52.458;20.914;2023-02-28T01:03:28;34.50;;;21.90;;
59416;SDS011;45222;52.458;20.914;2023-02-28T01:07:26;25.30;;;9.60;;
59416;SDS011;45222;52.458;20.914;2023-02-28T01:11:11;37.30;;;24.70;;
59416;SDS011;45222;52.458;20.914;2023-02-28T01:15:19;30.60;;;10.50;;
59416;SDS011;45222;52.458;20.914;2023-02-28T01:19:04;27.60;;;12.20;;
59416;SDS011;45222;52.458;20.914;2023-02-28T01:22:56;23.20;;;11.60;;
59416;SDS011;45222;52.458;20.914;2023-02-28T01:26:55;27.10;;;11.20;;
59416;SDS011;45222;52.458;20.914;2023-02-28T01:30:40;24.80;;;10.20;;
59416;SDS011;45222;52.458;20.914;2023-02-28T01:34:32;31.50;;;11.90;;
59416;SDS011;45222;52.458;20.914;2023-02-28T01:38:30;27.30;;;12.20;;
59416;SDS011;45222;52.458;20.914;2023-02-28T01:42:22;33.30;;;22.50;;
59416;SDS011;45222;52.458;20.914;2023-02-28T01:46:20;35.80;;;23.60;;
59416;SDS011;45222;52.458;20.914;2023-02-28T01:50:07;25.90;;;10.10;;
59416;SDS011;45222;52.458;20.914;2023-02-28T01:54:08;23.00;;;8.80;;
59416;SDS011;45222;52.458;20.914;2023-02-28T01:58:12;27.40;;;10.00;;
59416;SDS011;45222;52.458;20.914;2023-02-28T02:02:19;25.80;;;10.40;;
59416;SDS011;45222;52.458;20.914;2023-02-28T02:06:09;25.00;;;9.00;;
59416;SDS011;45222;52.458;20.914;2023-02-28T02:10:02;34.90;;;24.60;;
59416;SDS011;45222;52.458;20.914;2023-02-28T02:18:25;29.90;;;12.70;;
59416;SDS011;45222;52.458;20.914;2023-02-28T02:22:38;36.90;;;13.60;;
59416;SDS011;45222;52.458;20.914;2023-02-28T02:26:55;34.20;;;14.40;;
59416;SDS011;45222;52.458;20.914;2023-02-28T02:31:08;24.40;;;10.60;;
59416;SDS011;45222;52.458;20.914;2023-02-28T02:35:35;28.70;;;10.60;;
59416;SDS011;45222;52.458;20.914;2023-02-28T02:39:43;30.80;;;10.50;;
59416;SDS011;45222;52.458;20.914;2023-02-28T02:43:42;24.90;;;9.90;;
59416;SDS011;45222;52.458;20.914;2023-02-28T02:47:45;40.10;;;24.70;;
59416;SDS011;45222;52.458;20.914;2023-02-28T02:51:32;27.80;;;9.80;;
59416;SDS011;45222;52.458;20.914;2023-02-28T02:55:25;29.60;;;10.10;;
59416;SDS011;45222;52.458;20.914;2023-02-28T02:59:25;22.10;;;9.10;;
59416;SDS011;45222;52.458;20.914;2023-02-28T03:03:14;20.70;;;9.20;;
59416;SDS011;45222;52.458;20.914;2023-02-28T03:07:11;23.90;;;9.30;;
59416;SDS011;45222;52.458;20.914;2023-02-28T03:11:12;25.10;;;9.70;;
59416;SDS011;45222;52.458;20.914;2023-02-28T03:15:01;27.80;;;11.00;;
59416;SDS011;45222;52.458;20.914;2023-02-28T03:19:02;29.90;;;12.60;;
59416;SDS011;45222;52.458;20.914;2023-02-28T03:23:14;30.90;;;13.10;;
59416;SDS011;45222;52.458;20.914;2023-02-28T03:27:05;36.00;;;14.20;;
59416;SDS011;45222;52.458;20.914;2023-02-28T03:31:02;30.00;;;12.80;;
59416;SDS011;45222;52.458;20.914;2023-02-28T03:35:09;25.80;;;10.00;;
59416;SDS011;45222;52.458;20.914;2023-02-28T03:39:05;21.60;;;8.50;;
59416;SDS011;45222;52.458;20.914;2023-02-28T03:43:02;21.60;;;8.10;;
59416;SDS011;45222;52.458;20.914;2023-02-28T03:47:00;23.80;;;9.00;;
59416;SDS011;45222;52.458;20.914;2023-02-28T03:51:04;21.50;;;9.00;;
59416;SDS011;45222;52.458;20.914;2023-02-28T03:54:54;22.00;;;9.00;;
59416;SDS011;45222;52.458;20.914;2023-02-28T03:58:53;21.10;;;8.80;;
59416;SDS011;45222;52.458;20.914;2023-02-28T04:02:57;19.50;;;8.30;;
59416;SDS011;45222;52.458;20.914;2023-02-28T04:06:43;17.00;;;7.30;;
59416;SDS011;45222;52.458;20.914;2023-02-28T04:10:35;24.60;;;17.50;;
59416;SDS011;45222;52.458;20.914;2023-02-28T04:14:33;16.90;;;6.90;;
59416;SDS011;45222;52.458;20.914;2023-02-28T04:18:18;24.40;;;8.10;;
59416;SDS011;45222;52.458;20.914;2023-02-28T04:22:23;32.00;;;22.60;;
59416;SDS011;45222;52.458;20.914;2023-02-28T04:26:09;29.90;;;18.70;;
59416;SDS011;45222;52.458;20.914;2023-02-28T04:30:01;23.40;;;9.00;;
59416;SDS011;45222;52.458;20.914;2023-02-28T04:33:59;26.30;;;16.60;;
59416;SDS011;45222;52.458;20.914;2023-02-28T04:37:45;23.90;;;9.70;;
59416;SDS011;45222;52.458;20.914;2023-02-28T04:41:37;21.50;;;8.70;;
59416;SDS011;45222;52.458;20.914;2023-02-28T04:45:35;26.50;;;9.40;;
59416;SDS011;45222;52.458;20.914;2023-02-28T04:49:20;21.80;;;9.10;;
59416;SDS011;45222;52.458;20.914;2023-02-28T04:53:13;21.30;;;8.90;;
59416;SDS011;45222;52.458;20.914;2023-02-28T04:57:11;24.70;;;9.60;;
59416;SDS011;45222;52.458;20.914;2023-02-28T05:01:01;24.00;;;9.50;;
59416;SDS011;45222;52.458;20.914;2023-02-28T05:04:55;30.70;;;9.70;;
59416;SDS011;45222;52.458;20.914;2023-02-28T05:08:53;25.40;;;10.20;;
59416;SDS011;45222;52.458;20.914;2023-02-28T05:12:39;24.40;;;9.90;;
59416;SDS011;45222;52.458;20.914;2023-02-28T05:16:31;26.40;;;10.70;;
59416;SDS011;45222;52.458;20.914;2023-02-28T05:20:23;28.70;;;11.50;;
59416;SDS011;45222;52.458;20.914;2023-02-28T05:24:21;28.60;;;13.00;;
59416;SDS011;45222;52.458;20.914;2023-02-28T05:28:07;27.70;;;11.60;;
59416;SDS011;45222;52.458;20.914;2023-02-28T05:31:59;25.70;;;11.60;;
59416;SDS011;45222;52.458;20.914;2023-02-28T05:35:57;22.60;;;9.50;;
59416;SDS011;45222;52.458;20.914;2023-02-28T05:39:42;27.10;;;10.10;;
59416;SDS011;45222;52.458;20.914;2023-02-28T05:43:34;24.00;;;10.70;;
59416;SDS011;45222;52.458;20.914;2023-02-28T05:47:33;29.00;;;12.00;;
59416;SDS011;45222;52.458;20.914;2023-02-28T05:51:19;26.20;;;10.30;;
59416;SDS011;45222;52.458;20.914;2023-02-28T05:55:11;27.20;;;10.90;;
59416;SDS011;45222;52.458;20.914;2023-02-28T05:59:03;30.80;;;11.10;;
59416;SDS011;45222;52.458;20.914;2023-02-28T06:03:01;29.10;;;10.90;;
59416;SDS011;45222;52.458;20.914;2023-02-28T06:06:53;25.30;;;9.90;;
59416;SDS011;45222;52.458;20.914;2023-02-28T06:10:52;24.10;;;8.90;;
59416;SDS011;45222;52.458;20.914;2023-02-28T06:14:37;28.10;;;9.40;;
59416;SDS011;45222;52.458;20.914;2023-02-28T06:18:29;22.40;;;9.10;;
59416;SDS011;45222;52.458;20.914;2023-02-28T06:22:27;24.90;;;9.40;;
59416;SDS011;45222;52.458;20.914;2023-02-28T06:26:13;21.80;;;9.10;;
59416;SDS011;45222;52.458;20.914;2023-02-28T06:30:06;23.30;;;9.60;;
59416;SDS011;45222;52.458;20.914;2023-02-28T06:34:06;29.20;;;10.50;;
59416;SDS011;45222;52.458;20.914;2023-02-28T06:37:58;23.20;;;10.40;;
59416;SDS011;45222;52.458;20.914;2023-02-28T06:41:56;27.30;;;9.70;;
59416;SDS011;45222;52.458;20.914;2023-02-28T06:45:43;42.70;;;26.20;;
59416;SDS011;45222;52.458;20.914;2023-02-28T06:49:35;41.50;;;13.50;;
59416;SDS011;45222;52.458;20.914;2023-02-28T06:53:35;29.40;;;13.60;;
59416;SDS011;45222;52.458;20.914;2023-02-28T06:57:20;30.00;;;14.20;;
59416;SDS011;45222;52.458;20.914;2023-02-28T07:01:15;34.70;;;20.90;;
59416;SDS011;45222;52.458;20.914;2023-02-28T07:05:14;24.60;;;11.00;;
59416;SDS011;45222;52.458;20.914;2023-02-28T07:08:59;28.50;;;11.20;;
59416;SDS011;45222;52.458;20.914;2023-02-28T07:12:51;25.40;;;11.40;;
59416;SDS011;45222;52.458;20.914;2023-02-28T07:16:50;24.20;;;9.90;;
59416;SDS011;45222;52.458;20.914;2023-02-28T07:20:35;32.50;;;10.40;;
59416;SDS011;45222;52.458;20.914;2023-02-28T07:24:27;29.30;;;9.30;;
59416;SDS011;45222;52.458;20.914;2023-02-28T07:28:27;21.40;;;8.60;;
59416;SDS011;45222;52.458;20.914;2023-02-28T07:32:19;22.30;;;8.30;;
59416;SDS011;45222;52.458;20.914;2023-02-28T07:36:18;22.80;;;9.40;;
59416;SDS011;45222;52.458;20.914;2023-02-28T07:40:10;23.60;;;18.50;;
59416;SDS011;45222;52.458;20.914;2023-02-28T07:44:11;22.70;;;9.80;;
59416;SDS011;45222;52.458;20.914;2023-02-28T07:47:56;32.30;;;20.60;;
59416;SDS011;45222;52.458;20.914;2023-02-28T07:51:48;26.20;;;12.10;;
59416;SDS011;45222;52.458;20.914;2023-02-28T07:55:47;27.60;;;11.90;;
59416;SDS011;45222;52.458;20.914;2023-02-28T07:59:32;29.00;;;12.40;;
59416;SDS011;45222;52.458;20.914;2023-02-28T08:03:24;23.60;;;11.00;;
59416;SDS011;45222;52.458;20.914;2023-02-28T08:07:23;25.90;;;10.90;;
59416;SDS011;45222;52.458;20.914;2023-02-28T08:11:08;17.10;;;7.20;;
59416;SDS011;45222;52.458;20.914;2023-02-28T08:15:00;17.30;;;6.90;;
59416;SDS011;45222;52.458;20.914;2023-02-28T08:18:59;14.00;;;6.60;;
59416;SDS011;45222;52.458;20.914;2023-02-28T08:22:44;14.50;;;10.60;;
59416;SDS011;45222;52.458;20.914;2023-02-28T08:26:35;13.90;;;6.00;;
59416;SDS011;45222;52.458;20.914;2023-02-28T08:30:40;13.50;;;5.10;;
59416;SDS011;45222;52.458;20.914;2023-02-28T08:34:25;13.20;;;10.40;;
59416;SDS011;45222;52.458;20.914;2023-02-28T08:38:30;12.30;;;5.70;;
59416;SDS011;45222;52.458;20.914;2023-02-28T08:42:15;13.60;;;10.10;;
59416;SDS011;45222;52.458;20.914;2023-02-28T08:46:07;10.90;;;4.80;;
59416;SDS011;45222;52.458;20.914;2023-02-28T08:50:09;11.70;;;5.40;;
59416;SDS011;45222;52.458;20.914;2023-02-28T08:54:14;11.80;;;5.30;;
59416;SDS011;45222;52.458;20.914;2023-02-28T08:58:02;13.00;;;5.70;;
59416;SDS011;45222;52.458;20.914;2023-02-28T09:01:54;13.80;;;10.30;;
59416;SDS011;45222;52.458;20.914;2023-02-28T09:05:52;11.60;;;5.20;;
59416;SDS011;45222;52.458;20.914;2023-02-28T09:09:39;10.60;;;5.00;;
59416;SDS011;45222;52.458;20.914;2023-02-28T09:13:41;12.30;;;5.70;;
59416;SDS011;45222;52.458;20.914;2023-02-28T09:17:40;16.20;;;11.10;;
59416;SDS011;45222;52.458;20.914;2023-02-28T09:21:31;16.00;;;10.60;;
59416;SDS011;45222;52.458;20.914;2023-02-28T09:25:30;14.10;;;6.10;;
59416;SDS011;45222;52.458;20.914;2023-02-28T09:29:15;15.20;;;6.40;;
59416;SDS011;45222;52.458;20.914;2023-02-28T09:33:07;13.70;;;5.60;;
59416;SDS011;45222;52.458;20.914;2023-02-28T09:37:12;14.20;;;6.30;;
59416;SDS011;45222;52.458;20.914;2023-02-28T09:41:08;16.10;;;11.50;;
59416;SDS011;45222;52.458;20.914;2023-02-28T09:45:21;13.70;;;6.20;;
59416;SDS011;45222;52.458;20.914;2023-02-28T09:49:16;11.10;;;5.00;;
59416;SDS011;45222;52.458;20.914;2023-02-28T09:53:21;14.20;;;10.80;;
59416;SDS011;45222;52.458;20.914;2023-02-28T09:57:14;15.60;;;11.30;;
59416;SDS011;45222;52.458;20.914;2023-02-28T10:01:18;13.90;;;6.00;;
59416;SDS011;45222;52.458;20.914;2023-02-28T10:05:22;12.10;;;5.20;;
59416;SDS011;45222;52.458;20.914;2023-02-28T10:09:11;15.90;;;6.60;;
59416;SDS011;45222;52.458;20.914;2023-02-28T10:13:13;13.30;;;9.80;;
59416;SDS011;45222;52.458;20.914;2023-02-28T10:17:18;13.30;;;5.90;;
59416;SDS011;45222;52.458;20.914;2023-02-28T10:21:09;13.10;;;10.00;;
59416;SDS011;45222;52.458;20.914;2023-02-28T10:25:15;9.30;;;4.10;;
59416;SDS011;45222;52.458;20.914;2023-02-28T10:29:16;14.10;;;9.80;;
59416;SDS011;45222;52.458;20.914;2023-02-28T10:33:01;12.60;;;9.10;;
59416;SDS011;45222;52.458;20.914;2023-02-28T10:36:54;13.20;;;5.40;;
59416;SDS011;45222;52.458;20.914;2023-02-28T10:41:04;13.70;;;10.20;;
59416;SDS011;45222;52.458;20.914;2023-02-28T10:45:05;13.60;;;6.00;;
59416;SDS011;45222;52.458;20.914;2023-02-28T10:49:01;12.70;;;9.40;;
59416;SDS011;45222;52.458;20.914;2023-02-28T10:53:07;13.40;;;9.80;;
59416;SDS011;45222;52.458;20.914;2023-02-28T10:57:08;13.40;;;10.40;;
59416;SDS011;45222;52.458;20.914;2023-02-28T11:01:22;12.60;;;9.40;;
59416;SDS011;45222;52.458;20.914;2023-02-28T11:05:29;12.20;;;9.20;;
59416;SDS011;45222;52.458;20.914;2023-02-28T11:09:18;12.60;;;9.60;;
59416;SDS011;45222;52.458;20.914;2023-02-28T11:13:17;12.70;;;6.00;;
59416;SDS011;45222;52.458;20.914;2023-02-28T11:17:20;12.60;;;9.30;;
59416;SDS011;45222;52.458;20.914;2023-02-28T11:21:08;12.20;;;8.70;;
59416;SDS011;45222;52.458;20.914;2023-02-28T11:25:07;11.80;;;8.80;;
59416;SDS011;45222;52.458;20.914;2023-02-28T11:29:17;13.10;;;9.50;;
59416;SDS011;45222;52.458;20.914;2023-02-28T11:37:15;11.60;;;8.80;;
59416;SDS011;45222;52.458;20.914;2023-02-28T11:45:51;12.00;;;9.00;;
59416;SDS011;45222;52.458;20.914;2023-02-28T11:50:00;10.70;;;5.30;;
59416;SDS011;45222;52.458;20.914;2023-02-28T11:54:16;13.10;;;9.00;;
59416;SDS011;45222;52.458;20.914;2023-02-28T11:58:22;12.40;;;8.50;;
59416;SDS011;45222;52.458;20.914;2023-02-28T12:02:31;12.10;;;8.70;;
59416;SDS011;45222;52.458;20.914;2023-02-28T12:06:28;13.50;;;9.20;;
59416;SDS011;45222;52.458;20.914;2023-02-28T12:10:27;12.60;;;9.00;;
59416;SDS011;45222;52.458;20.914;2023-02-28T12:23:24;13.30;;;5.50;;
59416;SDS011;45222;52.458;20.914;2023-02-28T12:27:28;12.60;;;5.40;;
59416;SDS011;45222;52.458;20.914;2023-02-28T12:31:24;12.20;;;8.60;;
59416;SDS011;45222;52.458;20.914;2023-02-28T12:35:28;11.60;;;8.50;;
59416;SDS011;45222;52.458;20.914;2023-02-28T12:39:20;12.20;;;8.90;;
59416;SDS011;45222;52.458;20.914;2023-02-28T12:43:17;10.30;;;7.90;;
59416;SDS011;45222;52.458;20.914;2023-02-28T12:47:18;12.10;;;8.90;;
59416;SDS011;45222;52.458;20.914;2023-02-28T12:51:10;12.90;;;6.40;;
59416;SDS011;45222;52.458;20.914;2023-02-28T12:55:13;14.10;;;8.50;;
59416;SDS011;45222;52.458;20.914;2023-02-28T12:59:05;10.50;;;8.00;;
59416;SDS011;45222;52.458;20.914;2023-02-28T13:03:17;13.10;;;9.10;;
59416;SDS011;45222;52.458;20.914;2023-02-28T13:07:40;11.30;;;8.30;;
59416;SDS011;45222;52.458;20.914;2023-02-28T13:11:43;12.60;;;8.60;;
59416;SDS011;45222;52.458;20.914;2023-02-28T13:15:48;12.00;;;8.40;;
59416;SDS011;45222;52.458;20.914;2023-02-28T13:19:44;12.00;;;8.70;;
59416;SDS011;45222;52.458;20.914;2023-02-28T13:24:02;12.30;;;8.50;;
59416;SDS011;45222;52.458;20.914;2023-02-28T13:27:57;13.20;;;8.80;;
59416;SDS011;45222;52.458;20.914;2023-02-28T13:36:26;12.30;;;8.60;;
59416;SDS011;45222;52.458;20.914;2023-02-28T13:40:28;14.00;;;9.90;;
59416;SDS011;45222;52.458;20.914;2023-02-28T13:44:36;13.80;;;9.80;;
59416;SDS011;45222;52.458;20.914;2023-02-28T13:49:23;14.00;;;10.80;;
59416;SDS011;45222;52.458;20.914;2023-02-28T13:53:29;14.00;;;10.60;;
59416;SDS011;45222;52.458;20.914;2023-02-28T13:57:35;15.20;;;10.20;;
59416;SDS011;45222;52.458;20.914;2023-02-28T14:02:00;14.10;;;10.60;;
59416;SDS011;45222;52.458;20.914;2023-02-28T14:06:18;15.90;;;10.90;;
59416;SDS011;45222;52.458;20.914;2023-02-28T14:10:16;14.10;;;10.80;;
59416;SDS011;45222;52.458;20.914;2023-02-28T14:18:48;15.70;;;10.70;;
59416;SDS011;45222;52.458;20.914;2023-02-28T14:22:45;14.70;;;10.70;;
59416;SDS011;45222;52.458;20.914;2023-02-28T14:26:51;14.10;;;10.20;;
59416;SDS011;45222;52.458;20.914;2023-02-28T14:30:59;14.80;;;11.00;;
59416;SDS011;45222;52.458;20.914;2023-02-28T14:35:02;20.60;;;10.50;;
59416;SDS011;45222;52.458;20.914;2023-02-28T14:39:22;13.60;;;10.60;;
59416;SDS011;45222;52.458;20.914;2023-02-28T14:43:18;15.40;;;10.90;;
59416;SDS011;45222;52.458;20.914;2023-02-28T14:47:14;14.70;;;10.70;;
59416;SDS011;45222;52.458;20.914;2023-02-28T14:51:17;16.70;;;11.00;;
59416;SDS011;45222;52.458;20.914;2023-02-28T14:55:06;15.00;;;10.70;;
59416;SDS011;45222;52.458;20.914;2023-02-28T15:03:17;14.60;;;10.30;;
59416;SDS011;45222;52.458;20.914;2023-02-28T15:07:07;15.20;;;10.60;;
59416;SDS011;45222;52.458;20.914;2023-02-28T15:11:00;14.70;;;11.40;;
59416;SDS011;45222;52.458;20.914;2023-02-28T15:15:01;14.80;;;10.20;;
59416;SDS011;45222;52.458;20.914;2023-02-28T15:18:47;15.80;;;11.00;;
59416;SDS011;45222;52.458;20.914;2023-02-28T15:22:42;14.90;;;10.20;;
59416;SDS011;45222;52.458;20.914;2023-02-28T15:26:44;15.20;;;10.30;;
59416;SDS011;45222;52.458;20.914;2023-02-28T15:30:34;15.20;;;7.20;;
59416;SDS011;45222;52.458;20.914;2023-02-28T15:34:28;17.20;;;11.20;;
59416;SDS011;45222;52.458;20.914;2023-02-28T15:38:32;16.50;;;11.60;;
59416;SDS011;45222;52.458;20.914;2023-02-28T15:42:20;19.80;;;13.00;;
59416;SDS011;45222;52.458;20.914;2023-02-28T15:46:12;18.70;;;7.60;;
59416;SDS011;45222;52.458;20.914;2023-02-28T15:50:12;21.70;;;13.60;;
59416;SDS011;45222;52.458;20.914;2023-02-28T15:54:00;21.70;;;14.20;;
59416;SDS011;45222;52.458;20.914;2023-02-28T15:57:53;19.20;;;14.00;;
59416;SDS011;45222;52.458;20.914;2023-02-28T16:02:01;19.20;;;13.10;;
59416;SDS011;45222;52.458;20.914;2023-02-28T16:06:09;18.30;;;12.80;;
59416;SDS011;45222;52.458;20.914;2023-02-28T16:10:25;25.20;;;15.10;;
59416;SDS011;45222;52.458;20.914;2023-02-28T16:14:26;24.90;;;14.60;;
59416;SDS011;45222;52.458;20.914;2023-02-28T16:18:20;19.80;;;7.20;;
59416;SDS011;45222;52.458;20.914;2023-02-28T16:22:19;19.70;;;8.30;;
59416;SDS011;45222;52.458;20.914;2023-02-28T16:26:05;18.40;;;8.00;;
59416;SDS011;45222;52.458;20.914;2023-02-28T16:29:58;24.00;;;15.60;;
59416;SDS011;45222;52.458;20.914;2023-02-28T16:33:57;25.30;;;16.30;;
59416;SDS011;45222;52.458;20.914;2023-02-28T16:37:49;28.30;;;16.80;;
59416;SDS011;45222;52.458;20.914;2023-02-28T16:41:49;37.40;;;24.70;;
59416;SDS011;45222;52.458;20.914;2023-02-28T16:45:42;31.80;;;12.90;;
59416;SDS011;45222;52.458;20.914;2023-02-28T16:49:40;32.50;;;14.30;;
59416;SDS011;45222;52.458;20.914;2023-02-28T16:53:34;44.90;;;17.10;;
59416;SDS011;45222;52.458;20.914;2023-02-28T17:01:23;36.70;;;13.20;;
59416;SDS011;45222;52.458;20.914;2023-02-28T17:05:17;33.30;;;14.40;;
59416;SDS011;45222;52.458;20.914;2023-02-28T17:09:17;40.90;;;15.60;;
59416;SDS011;45222;52.458;20.914;2023-02-28T17:13:11;51.60;;;33.00;;
59416;SDS011;45222;52.458;20.914;2023-02-28T17:17:10;36.00;;;14.00;;
59416;SDS011;45222;52.458;20.914;2023-02-28T17:21:11;54.80;;;31.30;;
59416;SDS011;45222;52.458;20.914;2023-02-28T17:25:11;54.60;;;32.20;;
59416;SDS011;45222;52.458;20.914;2023-02-28T17:28:57;62.50;;;34.20;;
59416;SDS011;45222;52.458;20.914;2023-02-28T17:32:49;54.10;;;30.40;;
59416;SDS011;45222;52.458;20.914;2023-02-28T17:36:48;51.10;;;31.30;;
59416;SDS011;45222;52.458;20.914;2023-02-28T17:40:34;47.90;;;31.10;;
59416;SDS011;45222;52.458;20.914;2023-02-28T17:44:39;53.20;;;38.00;;
59416;SDS011;45222;52.458;20.914;2023-02-28T17:48:25;64.30;;;45.90;;
59416;SDS011;45222;52.458;20.914;2023-02-28T17:52:16;50.20;;;21.70;;
59416;SDS011;45222;52.458;20.914;2023-02-28T17:56:15;48.00;;;20.30;;
59416;SDS011;45222;52.458;20.914;2023-02-28T18:00:12;46.70;;;18.40;;
59416;SDS011;45222;52.458;20.914;2023-02-28T18:04:13;57.50;;;40.10;;
59416;SDS011;45222;52.458;20.914;2023-02-28T18:07:59;41.80;;;17.50;;
59416;SDS011;45222;52.458;20.914;2023-02-28T18:11:51;54.60;;;35.80;;
59416;SDS011;45222;52.458;20.914;2023-02-28T18:15:50;39.50;;;15.80;;
59416;SDS011;45222;52.458;20.914;2023-02-28T18:19:36;41.50;;;16.30;;
59416;SDS011;45222;52.458;20.914;2023-02-28T18:23:28;42.30;;;16.20;;
59416;SDS011;45222;52.458;20.914;2023-02-28T18:27:26;40.90;;;15.30;;
59416;SDS011;45222;52.458;20.914;2023-02-28T18:31:12;44.70;;;18.70;;
59416;SDS011;45222;52.458;20.914;2023-02-28T18:35:06;63.60;;;42.90;;
59416;SDS011;45222;52.458;20.914;2023-02-28T18:39:05;54.00;;;22.60;;
59416;SDS011;45222;52.458;20.914;2023-02-28T18:42:51;63.10;;;26.50;;
59416;SDS011;45222;52.458;20.914;2023-02-28T18:46:43;76.80;;;30.90;;
59416;SDS011;45222;52.458;20.914;2023-02-28T18:50:41;92.60;;;35.10;;
59416;SDS011;45222;52.458;20.914;2023-02-28T18:54:27;98.80;;;35.50;;
59416;SDS011;45222;52.458;20.914;2023-02-28T18:58:19;101.20;;;36.60;;
59416;SDS011;45222;52.458;20.914;2023-02-28T19:02:18;101.60;;;38.40;;
59416;SDS011;45222;52.458;20.914;2023-02-28T19:06:03;127.60;;;78.30;;
59416;SDS011;45222;52.458;20.914;2023-02-28T19:09:56;90.60;;;33.80;;
59416;SDS011;45222;52.458;20.914;2023-02-28T19:13:55;84.40;;;31.30;;
59416;SDS011;45222;52.458;20.914;2023-02-28T19:17:40;89.20;;;31.00;;
59416;SDS011;45222;52.458;20.914;2023-02-28T19:21:32;88.70;;;31.50;;
59416;SDS011;45222;52.458;20.914;2023-02-28T19:25:30;80.70;;;29.50;;
59416;SDS011;45222;52.458;20.914;2023-02-28T19:29:16;69.40;;;27.90;;
59416;SDS011;45222;52.458;20.914;2023-02-28T19:33:08;95.20;;;62.50;;
59416;SDS011;45222;52.458;20.914;2023-02-28T19:37:07;67.60;;;28.80;;
59416;SDS011;45222;52.458;20.914;2023-02-28T19:40:59;96.00;;;60.00;;
59416;SDS011;45222;52.458;20.914;2023-02-28T19:44:51;93.20;;;60.10;;
59416;SDS011;45222;52.458;20.914;2023-02-28T19:48:52;81.80;;;29.30;;
59416;SDS011;45222;52.458;20.914;2023-02-28T19:52:38;80.80;;;31.10;;
59416;SDS011;45222;52.458;20.914;2023-02-28T19:56:29;101.00;;;64.00;;
59416;SDS011;45222;52.458;20.914;2023-02-28T20:00:28;86.30;;;30.80;;
59416;SDS011;45222;52.458;20.914;2023-02-28T20:04:13;107.40;;;66.50;;
59416;SDS011;45222;52.458;20.914;2023-02-28T20:08:05;83.30;;;30.20;;
59416;SDS011;45222;52.458;20.914;2023-02-28T20:11:57;95.80;;;34.10;;
59416;SDS011;45222;52.458;20.914;2023-02-28T20:15:58;110.20;;;37.00;;
59416;SDS011;45222;52.458;20.914;2023-02-28T20:19:44;85.60;;;33.00;;
59416;SDS011;45222;52.458;20.914;2023-02-28T20:23:36;79.20;;;29.90;;
59416;SDS011;45222;52.458;20.914;2023-02-28T20:27:36;58.20;;;22.50;;
59416;SDS011;45222;52.458;20.914;2023-02-28T20:31:22;72.70;;;26.80;;
59416;SDS011;45222;52.458;20.914;2023-02-28T20:35:15;65.20;;;25.10;;
59416;SDS011;45222;52.458;20.914;2023-02-28T20:39:14;72.40;;;27.50;;
59416;SDS011;45222;52.458;20.914;2023-02-28T20:42:59;75.40;;;30.50;;
59416;SDS011;45222;52.458;20.914;2023-02-28T20:46:51;83.40;;;32.10;;
59416;SDS011;45222;52.458;20.914;2023-02-28T20:50:49;85.00;;;31.00;;
59416;SDS011;45222;52.458;20.914;2023-02-28T20:54:34;114.10;;;68.50;;
59416;SDS011;45222;52.458;20.914;2023-02-28T20:58:27;80.30;;;32.70;;
59416;SDS011;45222;52.458;20.914;2023-02-28T21:02:27;164.40;;;51.50;;
59416;SDS011;45222;52.458;20.914;2023-02-28T21:06:12;161.00;;;50.80;;
59416;SDS011;45222;52.458;20.914;2023-02-28T21:10:18;158.80;;;52.30;;
59416;SDS011;45222;52.458;20.914;2023-02-28T21:14:04;150.00;;;46.70;;
59416;SDS011;45222;52.458;20.914;2023-02-28T21:18:10;144.50;;;46.80;;
59416;SDS011;45222;52.458;20.914;2023-02-28T21:21:55;164.60;;;51.80;;
59416;SDS011;45222;52.458;20.914;2023-02-28T21:25:47;166.50;;;50.30;;
59416;SDS011;45222;52.458;20.914;2023-02-28T21:29:46;165.10;;;50.90;;
59416;SDS011;45222;52.458;20.914;2023-02-28T21:33:31;199.80;;;54.70;;
59416;SDS011;45222;52.458;20.914;2023-02-28T21:37:23;153.40;;;89.10;;
59416;SDS011;45222;52.458;20.914;2023-02-28T21:41:21;87.80;;;32.30;;
59416;SDS011;45222;52.458;20.914;2023-02-28T21:45:08;94.50;;;35.00;;
59416;SDS011;45222;52.458;20.914;2023-02-28T21:49:00;99.50;;;36.60;;
59416;SDS011;45222;52.458;20.914;2023-02-28T21:52:59;97.90;;;35.90;;
59416;SDS011;45222;52.458;20.914;2023-02-28T21:56:50;109.20;;;37.10;;
59416;SDS011;45222;52.458;20.914;2023-02-28T22:00:51;117.00;;;40.60;;
59416;SDS011;45222;52.458;20.914;2023-02-28T22:04:37;125.50;;;39.00;;
59416;SDS011;45222;52.458;20.914;2023-02-28T22:08:28;114.70;;;37.90;;
59416;SDS011;45222;52.458;20.914;2023-02-28T22:12:21;166.30;;;92.00;;
59416;SDS011;45222;52.458;20.914;2023-02-28T22:16:19;113.70;;;35.00;;
59416;SDS011;45222;52.458;20.914;2023-02-28T22:20:06;122.50;;;35.70;;
59416;SDS011;45222;52.458;20.914;2023-02-28T22:24:02;105.40;;;33.90;;
59416;SDS011;45222;52.458;20.914;2023-02-28T22:28:02;97.90;;;34.30;;
59416;SDS011;45222;52.458;20.914;2023-02-28T22:31:47;107.60;;;36.30;;
59416;SDS011;45222;52.458;20.914;2023-02-28T22:35:40;114.80;;;39.20;;
59416;SDS011;45222;52.458;20.914;2023-02-28T22:39:39;217.60;;;126.50;;
59416;SDS011;45222;52.458;20.914;2023-02-28T22:43:32;146.70;;;51.00;;
59416;SDS011;45222;52.458;20.914;2023-02-28T22:47:30;230.10;;;131.40;;
59416;SDS011;45222;52.458;20.914;2023-02-28T22:51:16;146.20;;;54.40;;
59416;SDS011;45222;52.458;20.914;2023-02-28T22:55:10;161.90;;;60.70;;
59416;SDS011;45222;52.458;20.914;2023-02-28T22:59:09;206.70;;;121.20;;
59416;SDS011;45222;52.458;20.914;2023-02-28T23:03:03;132.30;;;47.90;;
59416;SDS011;45222;52.458;20.914;2023-02-28T23:07:20;121.00;;;39.50;;
59416;SDS011;45222;52.458;20.914;2023-02-28T23:11:06;116.80;;;40.20;;
59416;SDS011;45222;52.458;20.914;2023-02-28T23:14:58;153.10;;;95.10;;
59416;SDS011;45222;52.458;20.914;2023-02-28T23:18:56;91.90;;;34.30;;
59416;SDS011;45222;52.458;20.914;2023-02-28T23:22:43;87.90;;;31.30;;